createdAt,value
2018-10-16T00:01:24.169Z,9.77
2018-10-16T00:03:51.623Z,10.60
2018-10-16T00:06:19.103Z,10.07
2018-10-16T00:08:46.541Z,10.33
2018-10-16T00:11:13.988Z,11.43
2018-10-16T00:13:41.417Z,11.17
2018-10-16T00:16:08.859Z,10.20
2018-10-16T00:18:36.273Z,10.97
2018-10-16T00:21:03.999Z,10.77
2018-10-16T00:23:31.433Z,10.23
2018-10-16T00:25:58.854Z,10.63
2018-10-16T00:28:26.244Z,10.33
2018-10-16T00:30:53.698Z,10.50
2018-10-16T00:33:21.135Z,10.40
2018-10-16T00:35:48.548Z,10.43
2018-10-16T00:38:16.018Z,10.80
2018-10-16T00:40:43.396Z,9.57
2018-10-16T00:43:10.836Z,11.07
2018-10-16T00:45:38.283Z,11.03
2018-10-16T00:48:05.804Z,10.60
2018-10-16T00:50:33.210Z,11.07
2018-10-16T00:53:00.635Z,10.40
2018-10-16T00:55:28.109Z,10.80
2018-10-16T00:57:55.528Z,11.10
2018-10-16T01:00:22.951Z,11.07
2018-10-16T01:02:50.361Z,11.27
2018-10-16T01:05:17.750Z,10.67
2018-10-16T01:07:45.217Z,10.87
2018-10-16T01:10:12.983Z,10.77
2018-10-16T01:12:40.762Z,12.30
2018-10-16T01:15:09.590Z,12.03
2018-10-16T01:17:37.518Z,12.43
2018-10-16T01:20:06.146Z,11.60
2018-10-16T01:22:33.534Z,11.20
2018-10-16T01:25:01.004Z,10.63
2018-10-16T01:27:28.400Z,10.33
2018-10-16T01:29:55.864Z,11.07
2018-10-16T01:32:23.307Z,11.47
2018-10-16T01:34:50.760Z,11.57
2018-10-16T01:37:18.241Z,11.03
2018-10-16T01:39:45.653Z,10.73
2018-10-16T01:42:13.070Z,11.73
2018-10-16T01:44:40.498Z,10.50
2018-10-16T01:47:07.962Z,10.97
2018-10-16T01:49:35.465Z,10.63
2018-10-16T01:52:02.883Z,11.07
2018-10-16T01:54:30.315Z,11.13
2018-10-16T01:56:57.752Z,11.60
2018-10-16T01:59:25.509Z,11.63
2018-10-16T02:01:52.957Z,10.90
2018-10-16T02:04:20.329Z,11.50
2018-10-16T02:06:47.773Z,10.80
2018-10-16T02:09:16.073Z,10.93
2018-10-16T02:11:43.484Z,10.77
2018-10-16T02:14:10.921Z,10.77
2018-10-16T02:16:38.330Z,11.00
2018-10-16T02:19:05.775Z,10.50
2018-10-16T02:21:33.164Z,11.80
2018-10-16T02:24:00.730Z,11.53
2018-10-16T02:26:28.151Z,10.70
2018-10-16T02:28:55.548Z,10.77
2018-10-16T02:31:23.153Z,10.53
2018-10-16T02:33:50.573Z,12.20
2018-10-16T02:36:18.015Z,12.07
2018-10-16T02:38:45.424Z,11.10
2018-10-16T02:41:12.870Z,10.70
2018-10-16T02:43:40.302Z,11.00
2018-10-16T02:46:07.723Z,10.53
2018-10-16T02:48:35.174Z,11.70
2018-10-16T02:51:02.608Z,10.90
2018-10-16T02:53:30.015Z,11.70
2018-10-16T02:55:57.455Z,12.33
2018-10-16T02:58:24.865Z,12.13
2018-10-16T03:00:52.280Z,11.67
2018-10-16T03:03:19.659Z,11.30
2018-10-16T03:05:47.119Z,11.70
2018-10-16T03:08:14.557Z,10.30
2018-10-16T03:10:42.025Z,11.03
2018-10-16T03:13:09.393Z,10.23
2018-10-16T03:15:36.859Z,10.87
2018-10-16T03:18:04.410Z,11.50
2018-10-16T03:20:31.967Z,10.87
2018-10-16T03:22:59.299Z,11.03
2018-10-16T03:25:26.758Z,10.90
2018-10-16T03:27:54.173Z,11.90
2018-10-16T03:30:21.662Z,11.30
2018-10-16T03:32:49.094Z,11.00
2018-10-16T03:35:16.558Z,11.20
2018-10-16T03:37:43.968Z,11.43
2018-10-16T03:40:11.899Z,11.03
2018-10-16T03:42:40.357Z,10.60
2018-10-16T03:45:09.409Z,10.53
2018-10-16T03:47:37.051Z,11.37
2018-10-16T03:50:04.820Z,10.73
2018-10-16T03:52:32.249Z,11.00
2018-10-16T03:54:59.669Z,11.00
2018-10-16T03:57:27.270Z,11.83
2018-10-16T03:59:54.541Z,10.77
2018-10-16T04:02:21.988Z,11.10
2018-10-16T04:04:49.454Z,12.23
2018-10-16T04:07:16.934Z,12.33
2018-10-16T04:09:44.348Z,11.97
2018-10-16T04:12:11.783Z,12.83
2018-10-16T04:14:39.174Z,11.87
2018-10-16T04:17:06.634Z,11.60
2018-10-16T04:19:34.060Z,11.20
2018-10-16T04:22:01.483Z,11.30
2018-10-16T04:24:28.999Z,11.80
2018-10-16T04:26:56.366Z,12.57
2018-10-16T04:29:23.834Z,12.60
2018-10-16T04:31:51.280Z,12.33
2018-10-16T04:34:18.765Z,12.80
2018-10-16T04:36:46.163Z,13.23
2018-10-16T04:39:14.245Z,13.83
2018-10-16T04:41:41.989Z,13.07
2018-10-16T04:44:09.383Z,11.30
2018-10-16T04:46:36.775Z,10.70
2018-10-16T04:49:04.576Z,11.03
2018-10-16T04:51:31.984Z,12.37
2018-10-16T04:53:59.476Z,11.40
2018-10-16T04:56:26.913Z,11.80
2018-10-16T04:58:54.312Z,11.07
2018-10-16T05:01:21.714Z,11.03
2018-10-16T05:03:49.138Z,11.27
2018-10-16T05:06:16.538Z,11.70
2018-10-16T05:08:43.979Z,11.43
2018-10-16T05:11:11.423Z,12.40
2018-10-16T05:13:38.801Z,11.53
2018-10-16T05:16:06.236Z,11.10
2018-10-16T05:18:33.594Z,10.80
2018-10-16T05:21:01.015Z,11.13
2018-10-16T05:23:28.399Z,10.80
2018-10-16T05:25:55.814Z,10.60
2018-10-16T05:28:23.205Z,10.80
2018-10-16T05:30:50.621Z,10.63
2018-10-16T05:33:18.006Z,10.43
2018-10-16T05:35:45.505Z,10.97
2018-10-16T05:38:12.910Z,10.40
2018-10-16T05:40:40.401Z,10.47
2018-10-16T05:43:07.833Z,11.07
2018-10-16T05:45:38.773Z,19.57
2018-10-16T05:48:06.394Z,22.37
2018-10-16T05:50:33.839Z,14.17
2018-10-16T05:53:01.534Z,15.07
2018-10-16T05:55:28.960Z,12.93
2018-10-16T05:57:56.484Z,12.33
2018-10-16T06:00:37.705Z,11.93
2018-10-16T06:03:05.288Z,10.60
2018-10-16T06:05:32.763Z,12.17
2018-10-16T06:08:00.146Z,12.43
2018-10-16T06:10:27.670Z,13.23
2018-10-16T06:12:55.110Z,12.77
2018-10-16T06:15:22.555Z,11.73
2018-10-16T06:17:50.025Z,12.47
2018-10-16T06:20:17.435Z,12.60
2018-10-16T06:22:44.901Z,12.40
2018-10-16T06:25:12.429Z,12.60
2018-10-16T06:27:41.180Z,12.83
2018-10-16T06:30:08.996Z,13.03
2018-10-16T06:32:36.678Z,12.77
2018-10-16T06:35:04.396Z,12.80
2018-10-16T06:37:31.840Z,13.50
2018-10-16T06:39:59.661Z,12.47
2018-10-16T06:42:27.086Z,11.63
2018-10-16T06:44:54.566Z,12.67
2018-10-16T06:47:22.287Z,12.77
2018-10-16T06:49:49.876Z,12.93
2018-10-16T06:52:17.429Z,13.17
2018-10-16T06:54:44.925Z,13.27
2018-10-16T06:57:12.289Z,13.63
2018-10-16T06:59:49.189Z,14.43
2018-10-16T07:02:16.644Z,14.07
2018-10-16T07:04:44.659Z,13.73
2018-10-16T07:07:12.243Z,13.57
2018-10-16T07:09:39.799Z,13.83
2018-10-16T07:12:07.686Z,13.40
2018-10-16T07:14:35.092Z,13.10
2018-10-16T07:17:02.541Z,12.77
2018-10-16T07:19:29.916Z,12.70
2018-10-16T07:21:57.564Z,12.80
2018-10-16T07:24:25.000Z,12.53
2018-10-16T07:26:52.532Z,13.83
2018-10-16T07:29:19.968Z,13.10
2018-10-16T07:31:47.409Z,13.57
2018-10-16T07:34:14.832Z,14.63
2018-10-16T07:36:42.394Z,13.63
2018-10-16T07:39:11.597Z,14.00
2018-10-16T07:41:39.507Z,12.93
2018-10-16T07:44:07.241Z,13.43
2018-10-16T07:46:34.731Z,13.00
2018-10-16T07:49:02.170Z,14.07
2018-10-16T07:51:29.591Z,13.70
2018-10-16T07:53:57.159Z,12.97
2018-10-16T07:56:24.635Z,12.73
2018-10-16T07:58:52.110Z,14.27
2018-10-16T08:01:19.515Z,13.23
2018-10-16T08:03:47.001Z,13.17
2018-10-16T08:06:14.480Z,12.70
2018-10-16T08:08:41.917Z,13.07
2018-10-16T08:11:09.514Z,13.80
2018-10-16T08:13:36.952Z,13.10
2018-10-16T08:16:04.697Z,12.57
2018-10-16T08:18:32.141Z,12.83
2018-10-16T08:20:59.536Z,11.33
2018-10-16T08:23:26.991Z,12.93
2018-10-16T08:25:54.500Z,12.27
2018-10-16T08:28:21.925Z,11.00
2018-10-16T08:30:49.368Z,11.80
2018-10-16T08:33:16.818Z,11.10
2018-10-16T08:35:44.290Z,10.80
2018-10-16T08:39:23.786Z,11.47
2018-10-16T08:44:09.989Z,10.33
2018-10-16T08:46:48.662Z,10.50
2018-10-16T08:49:27.279Z,10.70
2018-10-16T08:51:56.805Z,11.00
2018-10-16T08:54:24.487Z,10.17
2018-10-16T08:56:51.909Z,26.50
2018-10-16T08:59:19.585Z,12.03
2018-10-16T09:01:47.091Z,10.80
2018-10-16T09:04:14.566Z,9.70
2018-10-16T09:06:42.074Z,10.10
2018-10-16T09:09:11.171Z,9.33
2018-10-16T09:11:38.777Z,8.87
2018-10-16T09:14:06.667Z,8.83
2018-10-16T09:16:34.061Z,9.93
2018-10-16T09:19:01.544Z,9.30
2018-10-16T09:21:29.001Z,10.00
2018-10-16T09:23:56.425Z,8.37
2018-10-16T09:26:23.842Z,7.77
2018-10-16T09:28:51.236Z,6.83
2018-10-16T09:31:18.723Z,6.63
2018-10-16T09:33:46.166Z,8.40
2018-10-16T09:36:13.662Z,6.97
2018-10-16T09:38:41.105Z,6.63
2018-10-16T09:41:08.642Z,6.40
2018-10-16T09:43:36.111Z,6.83
2018-10-16T09:46:03.548Z,6.10
2018-10-16T09:48:31.023Z,5.67
2018-10-16T09:50:58.476Z,6.40
2018-10-16T09:53:25.986Z,6.12
2018-10-16T09:55:53.413Z,5.87
2018-10-16T09:58:20.851Z,6.10
2018-10-16T10:00:54.343Z,5.65
2018-10-16T10:03:21.818Z,5.72
2018-10-16T10:05:49.193Z,6.40
2018-10-16T10:08:16.641Z,5.62
2018-10-16T10:10:44.058Z,5.22
2018-10-16T10:13:11.523Z,5.62
2018-10-16T10:15:38.976Z,6.67
2018-10-16T10:18:06.402Z,6.10
2018-10-16T10:20:33.957Z,5.92
2018-10-16T10:23:01.387Z,5.95
2018-10-16T10:25:28.815Z,6.35
2018-10-16T10:27:56.280Z,5.03
2018-10-16T10:30:23.744Z,5.50
2018-10-16T10:32:51.207Z,5.47
2018-10-16T10:35:18.699Z,5.23
2018-10-16T10:37:46.101Z,5.37
2018-10-16T10:40:13.582Z,5.30
2018-10-16T10:42:40.981Z,5.17
2018-10-16T10:45:09.148Z,5.08
2018-10-16T10:49:57.306Z,5.03
2018-10-16T10:52:24.716Z,5.30
2018-10-16T10:54:52.182Z,5.03
2018-10-16T10:57:19.623Z,4.83
2018-10-16T10:59:47.067Z,5.20
2018-10-16T11:02:14.482Z,5.00
2018-10-16T11:04:41.906Z,5.00
2018-10-16T11:07:09.331Z,4.85
2018-10-16T11:09:36.845Z,5.05
2018-10-16T11:12:04.433Z,5.45
2018-10-16T11:14:31.829Z,5.00
2018-10-16T11:16:59.311Z,4.93
2018-10-16T11:19:26.796Z,4.80
2018-10-16T11:21:54.223Z,5.37
2018-10-16T11:24:21.661Z,4.30
2018-10-16T11:26:49.134Z,5.13
2018-10-16T11:29:16.771Z,4.90
2018-10-16T11:31:44.186Z,4.60
2018-10-16T11:34:11.655Z,5.03
2018-10-16T11:36:39.111Z,4.77
2018-10-16T11:40:31.033Z,4.83
2018-10-16T11:42:58.548Z,4.83
2018-10-16T11:45:25.962Z,4.97
2018-10-16T11:47:53.472Z,4.97
2018-10-16T11:50:20.934Z,5.00
2018-10-16T11:52:48.502Z,4.90
2018-10-16T11:55:15.926Z,4.70
2018-10-16T11:57:43.435Z,4.43
2018-10-16T12:00:13.656Z,4.57
2018-10-16T12:02:41.240Z,4.90
2018-10-16T12:05:08.687Z,4.77
2018-10-16T12:07:36.106Z,4.67
2018-10-16T12:10:03.847Z,4.90
2018-10-16T12:12:31.293Z,4.93
2018-10-16T12:14:58.676Z,4.83
2018-10-16T12:17:31.787Z,7.33
2018-10-16T12:20:03.637Z,5.30
2018-10-16T12:22:31.038Z,5.17
2018-10-16T12:24:58.551Z,8.17
2018-10-16T12:27:25.952Z,7.23
2018-10-16T12:29:53.412Z,9.63
2018-10-16T12:32:20.966Z,9.45
2018-10-16T12:34:48.391Z,19.37
2018-10-16T12:37:15.876Z,10.60
2018-10-16T12:39:43.359Z,9.30
2018-10-16T12:42:11.009Z,24.37
2018-10-16T12:44:38.386Z,16.23
2018-10-16T12:47:05.861Z,34.23
2018-10-16T12:49:33.256Z,4.67
2018-10-16T12:52:00.742Z,14.00
2018-10-16T12:54:28.201Z,7.87
2018-10-16T12:56:55.749Z,5.27
2018-10-16T12:59:23.158Z,5.28
2018-10-16T13:01:50.624Z,6.80
2018-10-16T13:04:18.018Z,5.57
2018-10-16T13:06:45.447Z,4.83
2018-10-16T13:09:12.978Z,4.90
2018-10-16T13:11:41.299Z,4.85
2018-10-16T13:14:08.745Z,4.57
2018-10-16T13:16:36.476Z,5.20
2018-10-16T13:19:03.968Z,5.05
2018-10-16T13:21:31.421Z,8.88
2018-10-16T13:23:58.889Z,6.50
2018-10-16T13:26:26.374Z,5.30
2018-10-16T13:28:53.789Z,4.97
2018-10-16T13:31:21.227Z,4.95
2018-10-16T13:33:48.636Z,5.78
2018-10-16T13:36:16.084Z,5.35
2018-10-16T13:38:43.537Z,6.00
2018-10-16T13:41:11.011Z,5.20
2018-10-16T13:43:38.474Z,4.73
2018-10-16T13:46:06.069Z,4.78
2018-10-16T13:48:33.551Z,4.33
2018-10-16T13:51:01.012Z,4.42
2018-10-16T13:53:28.444Z,5.10
2018-10-16T13:55:55.898Z,4.70
2018-10-16T13:58:23.322Z,4.78
2018-10-16T14:00:50.771Z,4.50
2018-10-16T14:03:18.207Z,4.37
2018-10-16T14:05:45.814Z,4.53
2018-10-16T14:08:13.312Z,4.55
2018-10-16T14:10:40.783Z,5.05
2018-10-16T14:13:08.207Z,4.33
2018-10-16T14:15:35.614Z,5.10
2018-10-16T14:18:03.083Z,4.75
2018-10-16T14:20:30.484Z,4.90
2018-10-16T14:22:57.981Z,4.97
2018-10-16T14:25:25.367Z,4.90
2018-10-16T14:27:52.801Z,4.80
2018-10-16T14:30:20.214Z,4.63
2018-10-16T14:32:47.702Z,4.87
2018-10-16T14:35:15.177Z,6.17
2018-10-16T14:37:42.617Z,5.08
2018-10-16T14:40:12.159Z,4.60
2018-10-16T14:42:39.662Z,6.63
2018-10-16T14:45:08.119Z,4.63
2018-10-16T14:47:35.690Z,5.20
2018-10-16T14:50:03.262Z,5.00
2018-10-16T14:52:30.678Z,4.75
2018-10-16T14:54:58.174Z,4.80
2018-10-16T14:57:25.596Z,5.33
2018-10-16T14:59:53.097Z,4.90
2018-10-16T15:02:20.505Z,5.00
2018-10-16T15:04:47.954Z,5.35
2018-10-16T15:07:15.365Z,4.90
2018-10-16T15:09:42.861Z,5.20
2018-10-16T15:12:10.277Z,4.90
2018-10-16T15:14:37.766Z,5.30
2018-10-16T15:17:05.639Z,5.28
2018-10-16T15:19:33.116Z,5.28
2018-10-16T15:22:00.622Z,5.22
2018-10-16T15:24:28.038Z,5.50
2018-10-16T15:26:55.462Z,5.60
2018-10-16T15:29:22.881Z,5.42
2018-10-16T15:31:50.341Z,5.05
2018-10-16T15:34:17.785Z,5.10
2018-10-16T15:36:45.283Z,5.67
2018-10-16T15:39:13.202Z,5.33
2018-10-16T15:41:40.689Z,5.62
2018-10-16T15:44:08.931Z,5.53
2018-10-16T15:46:37.133Z,5.57
2018-10-16T15:49:04.887Z,5.43
2018-10-16T15:51:32.344Z,5.23
2018-10-16T15:53:59.874Z,5.23
2018-10-16T15:56:27.427Z,5.03
2018-10-16T15:58:54.833Z,5.10
2018-10-16T16:01:22.447Z,5.03
2018-10-16T16:03:49.965Z,5.87
2018-10-16T16:06:17.381Z,5.60
2018-10-16T16:08:44.864Z,5.07
2018-10-16T16:11:12.292Z,5.33
2018-10-16T16:13:39.793Z,5.70
2018-10-16T16:16:07.319Z,5.27
2018-10-16T16:18:34.798Z,6.57
2018-10-16T16:21:02.245Z,6.27
2018-10-16T16:23:29.668Z,6.03
2018-10-16T16:25:57.230Z,6.00
2018-10-16T16:28:24.597Z,6.13
2018-10-16T16:30:52.055Z,5.80
2018-10-16T16:33:19.489Z,6.20
2018-10-16T16:35:47.030Z,6.10
2018-10-16T16:38:14.646Z,6.20
2018-10-16T16:40:42.079Z,6.10
2018-10-16T16:43:09.477Z,6.10
2018-10-16T16:45:37.156Z,6.17
2018-10-16T16:48:04.704Z,6.10
2018-10-16T16:50:32.196Z,6.67
2018-10-16T16:52:59.618Z,6.90
2018-10-16T16:55:27.109Z,6.10
2018-10-16T16:57:54.576Z,6.47
2018-10-16T17:00:22.020Z,7.00
2018-10-16T17:02:49.404Z,6.53
2018-10-16T17:05:16.904Z,5.87
2018-10-16T17:07:44.643Z,5.90
2018-10-16T17:10:12.205Z,6.23
2018-10-16T17:12:40.188Z,7.07
2018-10-16T17:15:09.747Z,7.03
2018-10-16T17:17:37.588Z,6.53
2018-10-16T17:20:05.735Z,6.13
2018-10-16T17:22:33.238Z,6.60
2018-10-16T17:25:00.790Z,6.50
2018-10-16T17:27:28.211Z,6.50
2018-10-16T17:29:55.940Z,7.40
2018-10-16T17:32:23.445Z,18.23
2018-10-16T17:34:50.905Z,25.07
2018-10-16T17:37:18.382Z,15.27
2018-10-16T17:39:45.777Z,12.73
2018-10-16T17:42:13.291Z,11.60
2018-10-16T17:44:40.723Z,13.33
2018-10-16T17:47:08.163Z,12.87
2018-10-16T17:49:35.641Z,13.50
2018-10-16T17:52:03.138Z,25.33
2018-10-16T17:54:30.646Z,22.73
2018-10-16T17:56:58.152Z,15.83
2018-10-16T17:59:25.626Z,12.03
2018-10-16T18:01:53.225Z,11.50
2018-10-16T18:04:20.703Z,11.13
2018-10-16T18:06:48.144Z,13.53
2018-10-16T18:09:15.613Z,17.33
2018-10-16T18:11:43.127Z,15.80
2018-10-16T18:14:10.599Z,14.67
2018-10-16T18:16:38.071Z,15.30
2018-10-16T18:19:06.006Z,13.23
2018-10-16T18:21:33.483Z,14.27
2018-10-16T18:24:01.085Z,13.20
2018-10-16T18:26:28.568Z,11.23
2018-10-16T18:28:56.163Z,9.77
2018-10-16T18:31:23.823Z,9.40
2018-10-16T18:33:51.310Z,8.80
2018-10-16T18:36:18.878Z,9.47
2018-10-16T18:38:46.310Z,9.30
2018-10-16T18:41:13.858Z,9.13
2018-10-16T18:43:41.344Z,8.67
2018-10-16T18:46:08.830Z,9.13
2018-10-16T18:48:36.253Z,8.23
2018-10-16T18:51:03.867Z,9.17
2018-10-16T18:53:31.291Z,9.50
2018-10-16T18:55:58.820Z,10.50
2018-10-16T18:58:26.309Z,10.03
2018-10-16T19:00:53.800Z,10.03
2018-10-16T19:03:21.254Z,10.13
2018-10-16T19:05:48.679Z,11.20
2018-10-16T19:08:16.120Z,11.13
2018-10-16T19:10:43.625Z,12.13
2018-10-16T19:13:11.166Z,13.83
2018-10-16T19:15:38.645Z,15.80
2018-10-16T19:18:06.164Z,13.70
2018-10-16T19:20:33.598Z,12.20
2018-10-16T19:23:01.108Z,12.93
2018-10-16T19:25:28.654Z,13.37
2018-10-16T19:27:56.218Z,14.10
2018-10-16T19:30:23.708Z,15.07
2018-10-16T19:32:51.239Z,16.85
2018-10-16T19:35:18.595Z,14.83
2018-10-16T19:37:46.081Z,18.33
2018-10-16T19:40:13.561Z,20.33
2018-10-16T19:42:41.009Z,18.63
2018-10-16T19:45:09.194Z,13.90
2018-10-16T19:47:36.655Z,12.90
2018-10-16T19:50:04.440Z,12.23
2018-10-16T19:52:31.989Z,11.37
2018-10-16T19:54:59.544Z,12.10
2018-10-16T19:57:27.020Z,11.50
2018-10-16T19:59:54.601Z,11.53
2018-10-16T20:02:22.096Z,11.23
2018-10-16T20:04:49.584Z,11.80
2018-10-16T20:07:17.030Z,11.93
2018-10-16T20:09:44.554Z,12.00
2018-10-16T20:12:12.058Z,12.00
2018-10-16T20:14:39.521Z,12.17
2018-10-16T20:17:07.023Z,12.03
2018-10-16T20:19:34.596Z,12.30
2018-10-16T20:22:01.965Z,11.47
2018-10-16T20:24:29.454Z,12.23
2018-10-16T20:26:56.945Z,12.03
2018-10-16T20:29:24.398Z,11.70
2018-10-16T20:31:52.058Z,11.63
2018-10-16T20:34:19.515Z,12.10
2018-10-16T20:36:47.352Z,11.83
2018-10-16T20:39:14.816Z,12.67
2018-10-16T20:41:42.814Z,12.53
2018-10-16T20:44:10.615Z,13.00
2018-10-16T20:46:38.330Z,13.20
2018-10-16T20:49:06.729Z,11.67
2018-10-16T20:51:35.678Z,12.50
2018-10-16T20:54:03.476Z,13.43
2018-10-16T20:56:31.960Z,13.03
2018-10-16T20:58:59.386Z,14.90
2018-10-16T21:01:27.764Z,14.30
2018-10-16T21:03:55.495Z,14.03
2018-10-16T21:06:23.285Z,14.57
2018-10-16T21:08:50.904Z,14.60
2018-10-16T21:11:18.764Z,13.03
2018-10-16T21:13:46.691Z,11.60
2018-10-16T21:16:14.087Z,12.20
2018-10-16T21:18:41.820Z,12.30
2018-10-16T21:21:09.749Z,11.27
2018-10-16T21:23:37.194Z,11.30
2018-10-16T21:26:05.199Z,11.20
2018-10-16T21:28:33.015Z,11.20
2018-10-16T21:31:00.858Z,11.47
2018-10-16T21:33:28.436Z,11.27
2018-10-16T21:35:56.259Z,11.70
2018-10-16T21:38:23.849Z,11.43
2018-10-16T21:40:51.540Z,11.97
2018-10-16T21:43:19.354Z,11.80
2018-10-16T21:45:47.124Z,12.23
2018-10-16T21:48:14.557Z,12.03
2018-10-16T21:50:42.015Z,11.70
2018-10-16T21:53:09.991Z,11.57
2018-10-16T21:55:37.609Z,11.03
2018-10-16T21:58:05.792Z,12.97
2018-10-16T22:00:39.794Z,12.27
2018-10-16T22:03:07.164Z,13.40
2018-10-16T22:05:35.368Z,13.80
2018-10-16T22:08:03.399Z,14.47
2018-10-16T22:10:31.111Z,15.97
2018-10-16T22:12:58.641Z,15.20
2018-10-16T22:15:26.030Z,15.07
2018-10-16T22:17:53.465Z,16.13
2018-10-16T22:20:20.885Z,17.27
2018-10-16T22:22:48.358Z,15.13
2018-10-16T22:25:15.902Z,15.63
2018-10-16T22:27:43.267Z,14.40
2018-10-16T22:30:10.721Z,15.03
2018-10-16T22:32:38.201Z,15.03
2018-10-16T22:35:06.991Z,15.37
2018-10-16T22:37:34.436Z,14.27
2018-10-16T22:40:01.856Z,14.67
2018-10-16T22:42:29.279Z,15.63
2018-10-16T22:44:56.755Z,19.37
2018-10-16T22:47:24.205Z,33.27
2018-10-16T22:49:51.658Z,21.07
2018-10-16T22:52:19.149Z,19.50
2018-10-16T22:54:46.596Z,17.03
2018-10-16T22:57:13.988Z,13.30
2018-10-16T22:59:41.691Z,14.17
2018-10-16T23:02:09.072Z,13.37
2018-10-16T23:04:36.523Z,13.63
2018-10-16T23:07:03.963Z,12.70
2018-10-16T23:09:31.346Z,13.27
2018-10-16T23:11:58.740Z,13.07
2018-10-16T23:14:26.185Z,13.43
2018-10-16T23:16:53.594Z,13.70
2018-10-16T23:19:20.982Z,13.67
2018-10-16T23:21:48.401Z,12.50
2018-10-16T23:24:15.827Z,13.90
2018-10-16T23:26:43.244Z,12.87
2018-10-16T23:29:10.750Z,13.83
2018-10-16T23:31:38.195Z,13.13
2018-10-16T23:34:05.960Z,12.83
2018-10-16T23:36:33.350Z,12.93
2018-10-16T23:39:00.723Z,12.63
2018-10-16T23:41:28.159Z,12.53
2018-10-16T23:43:55.551Z,13.37
2018-10-16T23:46:22.952Z,14.07
2018-10-16T23:48:50.407Z,13.20
2018-10-16T23:51:17.762Z,13.37
2018-10-16T23:53:45.161Z,13.07
2018-10-16T23:56:12.600Z,13.80
2018-10-16T23:58:40.022Z,14.23
